createdAt,value
2018-05-07T00:00:46.423Z,0
2018-05-07T00:01:48.226Z,0
2018-05-07T00:02:49.958Z,0
2018-05-07T00:03:51.358Z,0
2018-05-07T00:04:52.750Z,0
2018-05-07T00:05:54.616Z,0
2018-05-07T00:06:55.936Z,0
2018-05-07T00:07:57.348Z,0
2018-05-07T00:08:58.868Z,0
2018-05-07T00:10:00.534Z,0
2018-05-07T00:11:01.984Z,0
2018-05-07T00:12:03.833Z,0
2018-05-07T00:13:05.232Z,0
2018-05-07T00:14:07.012Z,0
2018-05-07T00:15:08.378Z,0
2018-05-07T00:16:09.984Z,0
2018-05-07T00:17:11.377Z,0
2018-05-07T00:18:12.792Z,0
2018-05-07T00:19:14.174Z,0
2018-05-07T00:20:15.566Z,0
2018-05-07T00:21:16.983Z,0
2018-05-07T00:22:18.424Z,0
2018-05-07T00:23:19.831Z,0
2018-05-07T00:24:21.212Z,0
2018-05-07T00:25:22.601Z,0
2018-05-07T00:26:24.003Z,0
2018-05-07T00:27:25.392Z,0
2018-05-07T00:28:26.783Z,0
2018-05-07T00:29:28.182Z,0
2018-05-07T00:30:29.571Z,0
2018-05-07T00:31:30.963Z,0
2018-05-07T00:32:32.356Z,0
2018-05-07T00:33:33.749Z,0
2018-05-07T00:34:35.146Z,0
2018-05-07T00:35:36.540Z,0
2018-05-07T00:36:37.958Z,0
2018-05-07T00:37:39.351Z,0
2018-05-07T00:38:40.740Z,0
2018-05-07T00:39:42.139Z,0
2018-05-07T00:40:43.539Z,0
2018-05-07T00:41:44.928Z,0
2018-05-07T00:42:46.318Z,0
2018-05-07T00:43:47.711Z,0
2018-05-07T00:44:49.106Z,0
2018-05-07T00:45:50.494Z,0
2018-05-07T00:46:51.912Z,0
2018-05-07T00:47:53.314Z,0
2018-05-07T00:48:54.707Z,0
2018-05-07T00:49:56.103Z,0
2018-05-07T00:50:57.608Z,0
2018-05-07T00:51:59.002Z,0
2018-05-07T00:53:00.396Z,0
2018-05-07T00:54:01.817Z,0
2018-05-07T00:55:03.231Z,0
2018-05-07T00:56:04.622Z,0
2018-05-07T00:57:06.069Z,0
2018-05-07T00:58:07.424Z,0
2018-05-07T00:59:08.812Z,0
2018-05-07T01:00:10.205Z,0
2018-05-07T01:01:11.594Z,0
2018-05-07T01:02:13.027Z,0
2018-05-07T01:03:14.419Z,0
2018-05-07T01:04:15.820Z,0
2018-05-07T01:05:17.206Z,0
2018-05-07T01:06:18.612Z,0
2018-05-07T01:07:20.004Z,0
2018-05-07T01:08:21.416Z,0
2018-05-07T01:09:22.871Z,0
2018-05-07T01:10:24.332Z,0
2018-05-07T01:11:25.762Z,0
2018-05-07T01:12:27.147Z,0
2018-05-07T01:13:28.543Z,0
2018-05-07T01:14:29.934Z,0
2018-05-07T01:15:31.323Z,0
2018-05-07T01:16:32.720Z,0
2018-05-07T01:17:34.109Z,0
2018-05-07T01:18:35.506Z,0
2018-05-07T01:19:36.907Z,0
2018-05-07T01:20:38.297Z,0
2018-05-07T01:21:39.689Z,0
2018-05-07T01:22:41.081Z,0
2018-05-07T01:23:42.472Z,0
2018-05-07T01:24:43.869Z,0
2018-05-07T01:25:45.266Z,0
2018-05-07T01:26:46.660Z,0
2018-05-07T01:27:48.045Z,0
2018-05-07T01:28:49.437Z,0
2018-05-07T01:29:50.828Z,0
2018-05-07T01:30:52.222Z,0
2018-05-07T01:31:53.645Z,0
2018-05-07T01:32:55.041Z,0
2018-05-07T01:33:56.431Z,0
2018-05-07T01:34:57.831Z,0
2018-05-07T01:35:59.296Z,0
2018-05-07T01:37:00.687Z,0
2018-05-07T01:38:02.081Z,0
2018-05-07T01:39:03.478Z,0
2018-05-07T01:40:04.870Z,0
2018-05-07T01:41:06.299Z,0
2018-05-07T01:42:07.687Z,0
2018-05-07T01:43:09.082Z,0
2018-05-07T01:44:10.477Z,0
2018-05-07T01:45:11.858Z,0
2018-05-07T01:46:13.268Z,0
2018-05-07T01:47:14.654Z,0
2018-05-07T01:48:16.048Z,0
2018-05-07T01:49:17.435Z,0
2018-05-07T01:50:18.832Z,0
2018-05-07T01:51:20.226Z,0
2018-05-07T01:52:21.619Z,0
2018-05-07T01:53:23.023Z,0
2018-05-07T01:54:24.403Z,0
2018-05-07T01:55:25.796Z,0
2018-05-07T01:56:27.359Z,0
2018-05-07T01:57:28.751Z,0
2018-05-07T01:58:30.145Z,0
2018-05-07T01:59:31.534Z,0
2018-05-07T02:00:32.926Z,0
2018-05-07T02:01:34.326Z,0
2018-05-07T02:02:35.710Z,0
2018-05-07T02:03:37.114Z,0
2018-05-07T02:04:38.506Z,0
2018-05-07T02:05:39.897Z,0
2018-05-07T02:06:41.289Z,0
2018-05-07T02:07:42.680Z,0
2018-05-07T02:08:44.073Z,0
2018-05-07T02:09:45.469Z,0
2018-05-07T02:10:46.856Z,0
2018-05-07T02:11:48.251Z,0
2018-05-07T02:12:49.641Z,0
2018-05-07T02:13:51.039Z,0
2018-05-07T02:14:52.452Z,0
2018-05-07T02:15:53.902Z,0
2018-05-07T02:16:55.294Z,0
2018-05-07T02:17:56.684Z,0
2018-05-07T02:18:58.077Z,0
2018-05-07T02:19:59.469Z,0
2018-05-07T02:21:00.860Z,0
2018-05-07T02:22:02.252Z,0
2018-05-07T02:23:03.657Z,0
2018-05-07T02:24:05.051Z,0
2018-05-07T02:25:06.470Z,0
2018-05-07T02:26:07.955Z,0
2018-05-07T02:27:09.350Z,0
2018-05-07T02:28:10.753Z,0
2018-05-07T02:29:12.146Z,0
2018-05-07T02:30:13.542Z,0
2018-05-07T02:31:15.045Z,0
2018-05-07T02:32:16.382Z,0
2018-05-07T02:33:17.773Z,0
2018-05-07T02:34:19.160Z,0
2018-05-07T02:35:20.556Z,0
2018-05-07T02:36:21.948Z,0
2018-05-07T02:37:23.344Z,0
2018-05-07T02:38:24.737Z,0
2018-05-07T02:39:26.201Z,0
2018-05-07T02:40:27.563Z,0
2018-05-07T02:41:28.959Z,0
2018-05-07T02:42:30.366Z,0
2018-05-07T02:43:31.848Z,0
2018-05-07T02:44:33.264Z,0
2018-05-07T02:45:34.655Z,0
2018-05-07T02:46:36.047Z,0
2018-05-07T02:47:37.462Z,0
2018-05-07T02:48:38.853Z,0
2018-05-07T02:49:40.247Z,0
2018-05-07T02:50:41.672Z,0
2018-05-07T02:51:43.065Z,0
2018-05-07T02:52:44.455Z,0
2018-05-07T02:53:45.849Z,0
2018-05-07T02:54:47.273Z,0
2018-05-07T02:55:48.666Z,0
2018-05-07T02:56:50.057Z,0
2018-05-07T02:57:51.453Z,0
2018-05-07T02:58:52.845Z,0
2018-05-07T02:59:54.234Z,0
2018-05-07T03:00:55.654Z,0
2018-05-07T03:01:57.056Z,0
2018-05-07T03:02:58.445Z,0
2018-05-07T03:03:59.838Z,0
2018-05-07T03:05:01.230Z,0
2018-05-07T03:06:02.626Z,0
2018-05-07T03:07:04.020Z,0
2018-05-07T03:08:05.410Z,0
2018-05-07T03:09:06.812Z,0
2018-05-07T03:10:08.203Z,0
2018-05-07T03:11:09.599Z,0
2018-05-07T03:12:11.001Z,0
2018-05-07T03:13:12.385Z,0
2018-05-07T03:14:13.772Z,0
2018-05-07T03:15:15.176Z,0
2018-05-07T03:16:16.557Z,0
2018-05-07T03:17:17.957Z,0
2018-05-07T03:18:19.351Z,0
2018-05-07T03:19:20.738Z,0
2018-05-07T03:20:22.141Z,0
2018-05-07T03:21:23.559Z,0
2018-05-07T03:22:24.959Z,0
2018-05-07T03:23:26.342Z,0
2018-05-07T03:24:27.733Z,0
2018-05-07T03:25:29.126Z,0
2018-05-07T03:26:30.524Z,4
2018-05-07T03:27:31.921Z,0
2018-05-07T03:28:33.313Z,0
2018-05-07T03:29:34.816Z,0
2018-05-07T03:30:36.172Z,4
2018-05-07T03:31:37.583Z,4
2018-05-07T03:32:38.976Z,0
2018-05-07T03:33:40.367Z,4
2018-05-07T03:34:41.762Z,4
2018-05-07T03:35:43.149Z,4
2018-05-07T03:36:44.540Z,8
2018-05-07T03:37:45.933Z,4
2018-05-07T03:38:47.355Z,4
2018-05-07T03:39:48.747Z,8
2018-05-07T03:40:50.143Z,8
2018-05-07T03:41:51.528Z,12
2018-05-07T03:42:52.942Z,12
2018-05-07T03:43:54.328Z,12
2018-05-07T03:44:55.716Z,12
2018-05-07T03:45:57.111Z,16
2018-05-07T03:46:58.505Z,20
2018-05-07T03:47:59.898Z,20
2018-05-07T03:49:01.299Z,28
2018-05-07T03:50:02.686Z,28
2018-05-07T03:51:04.080Z,32
2018-05-07T03:52:05.471Z,36
2018-05-07T03:53:06.866Z,40
2018-05-07T03:54:08.327Z,44
2018-05-07T03:55:09.719Z,48
2018-05-07T03:56:11.118Z,52
2018-05-07T03:57:12.515Z,60
2018-05-07T03:58:13.906Z,64
2018-05-07T03:59:15.294Z,72
2018-05-07T04:00:16.704Z,76
2018-05-07T04:01:18.084Z,80
2018-05-07T04:02:19.472Z,92
2018-05-07T04:03:20.868Z,96
2018-05-07T04:04:22.261Z,104
2018-05-07T04:05:23.662Z,112
2018-05-07T04:06:25.056Z,120
2018-05-07T04:07:26.468Z,128
2018-05-07T04:08:27.886Z,136
2018-05-07T04:09:29.282Z,148
2018-05-07T04:10:30.681Z,156
2018-05-07T04:11:32.155Z,164
2018-05-07T04:12:33.570Z,172
2018-05-07T04:13:34.963Z,180
2018-05-07T04:14:36.360Z,188
2018-05-07T04:15:37.751Z,200
2018-05-07T04:16:39.237Z,208
2018-05-07T04:17:40.682Z,216
2018-05-07T04:18:42.063Z,228
2018-05-07T04:19:43.461Z,236
2018-05-07T04:20:44.928Z,244
2018-05-07T04:21:46.343Z,252
2018-05-07T04:22:47.767Z,264
2018-05-07T04:23:49.159Z,272
2018-05-07T04:24:50.558Z,284
2018-05-07T04:25:51.952Z,292
2018-05-07T04:26:53.386Z,296
2018-05-07T04:27:54.781Z,308
2018-05-07T04:28:56.173Z,316
2018-05-07T04:29:57.566Z,328
2018-05-07T04:30:59.001Z,332
2018-05-07T04:32:00.403Z,344
2018-05-07T04:33:01.803Z,348
2018-05-07T04:34:03.197Z,360
2018-05-07T04:35:04.606Z,368
2018-05-07T04:36:06.001Z,380
2018-05-07T04:37:07.391Z,384
2018-05-07T04:38:08.903Z,392
2018-05-07T04:39:10.261Z,404
2018-05-07T04:40:11.684Z,420
2018-05-07T04:41:13.092Z,428
2018-05-07T04:42:14.490Z,436
2018-05-07T04:43:15.967Z,444
2018-05-07T04:44:17.282Z,448
2018-05-07T04:45:18.783Z,456
2018-05-07T04:46:20.173Z,464
2018-05-07T04:47:21.568Z,472
2018-05-07T04:48:22.964Z,480
2018-05-07T04:49:24.361Z,488
2018-05-07T04:50:25.751Z,496
2018-05-07T04:51:27.152Z,504
2018-05-07T04:52:28.680Z,508
2018-05-07T04:53:30.126Z,516
2018-05-07T04:54:31.525Z,524
2018-05-07T04:55:32.925Z,528
2018-05-07T04:56:34.321Z,540
2018-05-07T04:57:35.720Z,544
2018-05-07T04:58:37.170Z,552
2018-05-07T04:59:38.597Z,560
2018-05-07T05:00:39.997Z,568
2018-05-07T05:01:41.390Z,572
2018-05-07T05:02:42.914Z,580
2018-05-07T05:03:44.424Z,580
2018-05-07T05:04:45.818Z,592
2018-05-07T05:05:47.211Z,596
2018-05-07T05:06:48.632Z,604
2018-05-07T05:07:50.027Z,608
2018-05-07T05:08:51.420Z,616
2018-05-07T05:09:52.813Z,620
2018-05-07T05:10:54.207Z,624
2018-05-07T05:11:55.600Z,636
2018-05-07T05:12:56.999Z,636
2018-05-07T05:13:58.453Z,640
2018-05-07T05:14:59.852Z,648
2018-05-07T05:16:01.247Z,656
2018-05-07T05:17:02.672Z,660
2018-05-07T05:18:04.066Z,664
2018-05-07T05:19:05.460Z,668
2018-05-07T05:20:08.161Z,672
2018-05-07T05:21:09.576Z,676
2018-05-07T05:22:10.866Z,684
2018-05-07T05:23:12.270Z,688
2018-05-07T05:24:13.664Z,692
2018-05-07T05:25:15.074Z,700
2018-05-07T05:26:16.462Z,700
2018-05-07T05:27:17.959Z,708
2018-05-07T05:28:19.209Z,712
2018-05-07T05:29:20.599Z,720
2018-05-07T05:30:22.008Z,724
2018-05-07T05:31:23.446Z,732
2018-05-07T05:32:24.862Z,736
2018-05-07T05:33:26.253Z,740
2018-05-07T05:34:27.665Z,744
2018-05-07T05:35:29.107Z,752
2018-05-07T05:36:30.504Z,756
2018-05-07T05:37:31.895Z,760
2018-05-07T05:38:33.289Z,764
2018-05-07T05:39:34.689Z,772
2018-05-07T05:40:36.132Z,780
2018-05-07T05:41:37.532Z,784
2018-05-07T05:42:38.926Z,788
2018-05-07T05:43:40.400Z,792
2018-05-07T05:44:41.725Z,800
2018-05-07T05:45:43.127Z,808
2018-05-07T05:46:44.520Z,812
2018-05-07T05:47:45.991Z,820
2018-05-07T05:48:47.387Z,824
2018-05-07T05:49:48.825Z,832
2018-05-07T05:50:50.234Z,840
2018-05-07T05:51:51.628Z,844
2018-05-07T05:52:53.019Z,852
2018-05-07T05:53:54.418Z,856
2018-05-07T05:54:55.812Z,864
2018-05-07T05:55:57.212Z,868
2018-05-07T05:56:58.610Z,876
2018-05-07T05:58:00.017Z,884
2018-05-07T05:59:01.410Z,892
2018-05-07T06:00:02.799Z,896
2018-05-07T06:01:04.202Z,904
2018-05-07T06:02:05.596Z,912
2018-05-07T06:03:07.007Z,920
2018-05-07T06:04:08.430Z,924
2018-05-07T06:05:09.854Z,936
2018-05-07T06:06:11.250Z,944
2018-05-07T06:07:12.656Z,948
2018-05-07T06:08:14.047Z,960
2018-05-07T06:09:15.440Z,964
2018-05-07T06:10:16.841Z,972
2018-05-07T06:11:18.238Z,984
2018-05-07T06:12:19.631Z,992
2018-05-07T06:13:21.027Z,1000
2018-05-07T06:14:22.442Z,1008
2018-05-07T06:15:23.821Z,1020
2018-05-07T06:16:25.309Z,1028
2018-05-07T06:17:26.734Z,1040
2018-05-07T06:18:28.137Z,1052
2018-05-07T06:19:29.610Z,1060
2018-05-07T06:20:31.006Z,1072
2018-05-07T06:21:32.413Z,1084
2018-05-07T06:22:33.823Z,1096
2018-05-07T06:23:35.218Z,1108
2018-05-07T06:24:36.612Z,1120
2018-05-07T06:25:38.017Z,1132
2018-05-07T06:26:39.417Z,1140
2018-05-07T06:27:40.813Z,1156
2018-05-07T06:28:42.217Z,1168
2018-05-07T06:29:43.620Z,1180
2018-05-07T06:30:45.005Z,1196
2018-05-07T06:31:46.404Z,1208
2018-05-07T06:32:47.872Z,1224
2018-05-07T06:33:49.403Z,1232
2018-05-07T06:34:50.857Z,1244
2018-05-07T06:35:52.252Z,1260
2018-05-07T06:36:53.699Z,1268
2018-05-07T06:37:55.053Z,1284
2018-05-07T06:38:56.448Z,1296
2018-05-07T06:39:57.847Z,1308
2018-05-07T06:40:59.336Z,1324
2018-05-07T06:42:00.730Z,1336
2018-05-07T06:43:02.181Z,1344
2018-05-07T06:44:03.579Z,1364
2018-05-07T06:45:04.980Z,1376
2018-05-07T06:46:06.380Z,1392
2018-05-07T06:47:07.776Z,1408
2018-05-07T06:48:09.176Z,1428
2018-05-07T06:49:10.580Z,1436
2018-05-07T06:50:12.000Z,1452
2018-05-07T06:51:13.415Z,1472
2018-05-07T06:52:14.816Z,1484
2018-05-07T06:53:16.206Z,1500
2018-05-07T06:54:17.609Z,1520
2018-05-07T06:55:19.004Z,1536
2018-05-07T06:56:20.427Z,1548
2018-05-07T06:57:21.818Z,1568
2018-05-07T06:58:23.218Z,1580
2018-05-07T06:59:24.615Z,1604
2018-05-07T07:00:26.011Z,1624
2018-05-07T07:01:27.409Z,1644
2018-05-07T07:02:28.925Z,1668
2018-05-07T07:03:30.224Z,1692
2018-05-07T07:04:31.625Z,1712
2018-05-07T07:05:33.019Z,1732
2018-05-07T07:06:34.417Z,1768
2018-05-07T07:07:35.817Z,1788
2018-05-07T07:08:37.304Z,1812
2018-05-07T07:09:38.608Z,1832
2018-05-07T07:10:40.005Z,1856
2018-05-07T07:11:41.404Z,1872
2018-05-07T07:12:42.798Z,1900
2018-05-07T07:13:44.193Z,1920
2018-05-07T07:14:45.590Z,1940
2018-05-07T07:15:46.991Z,1964
2018-05-07T07:16:48.389Z,1984
2018-05-07T07:17:49.783Z,2000
2018-05-07T07:18:51.186Z,2020
2018-05-07T07:19:52.577Z,2040
2018-05-07T07:20:54.019Z,2056
2018-05-07T07:21:55.434Z,2072
2018-05-07T07:22:56.828Z,2092
2018-05-07T07:23:58.227Z,2108
2018-05-07T07:24:59.623Z,2124
2018-05-07T07:26:01.020Z,2140
2018-05-07T07:27:02.456Z,2160
2018-05-07T07:28:03.908Z,2176
2018-05-07T07:29:05.229Z,2196
2018-05-07T07:30:06.625Z,2212
2018-05-07T07:31:08.024Z,2232
2018-05-07T07:32:09.423Z,2252
2018-05-07T07:33:10.817Z,2272
2018-05-07T07:34:12.215Z,2288
2018-05-07T07:35:13.633Z,2304
2018-05-07T07:36:15.032Z,2320
2018-05-07T07:37:16.432Z,2340
2018-05-07T07:38:17.869Z,2360
2018-05-07T07:39:19.265Z,2376
2018-05-07T07:40:20.660Z,2392
2018-05-07T07:41:22.060Z,2412
2018-05-07T07:42:23.469Z,2428
2018-05-07T07:43:24.865Z,2452
2018-05-07T07:44:26.270Z,2476
2018-05-07T07:45:27.669Z,2500
2018-05-07T07:46:29.066Z,2464
2018-05-07T07:47:30.503Z,2544
2018-05-07T07:48:31.915Z,2568
2018-05-07T07:49:33.316Z,2592
2018-05-07T07:50:34.716Z,2624
2018-05-07T07:51:36.116Z,2652
2018-05-07T07:52:37.516Z,2684
2018-05-07T07:53:38.937Z,2712
2018-05-07T07:54:40.318Z,2736
2018-05-07T07:55:41.719Z,2764
2018-05-07T07:56:43.119Z,2784
2018-05-07T07:57:44.519Z,2812
2018-05-07T07:58:45.919Z,2852
2018-05-07T07:59:47.322Z,2876
2018-05-07T08:00:48.720Z,2908
2018-05-07T08:01:50.119Z,2936
2018-05-07T08:02:51.523Z,2972
2018-05-07T08:03:52.919Z,2996
2018-05-07T08:04:54.317Z,3024
2018-05-07T08:05:55.722Z,3048
2018-05-07T08:06:57.121Z,3076
2018-05-07T08:07:58.565Z,3100
2018-05-07T08:08:59.965Z,3128
2018-05-07T08:10:01.362Z,3148
2018-05-07T08:11:02.768Z,3168
2018-05-07T08:12:04.252Z,3188
2018-05-07T08:13:05.564Z,3216
2018-05-07T08:14:06.971Z,3240
2018-05-07T08:15:08.382Z,3260
2018-05-07T08:16:09.777Z,3284
2018-05-07T08:17:11.182Z,3308
2018-05-07T08:18:12.579Z,3340
2018-05-07T08:19:13.977Z,3352
2018-05-07T08:20:15.377Z,3384
2018-05-07T08:21:16.785Z,3404
2018-05-07T08:22:18.181Z,3440
2018-05-07T08:23:19.579Z,3452
2018-05-07T08:24:20.977Z,3476
2018-05-07T08:25:22.383Z,3504
2018-05-07T08:26:23.801Z,3528
2018-05-07T08:27:25.203Z,3548
2018-05-07T08:28:26.602Z,3580
2018-05-07T08:29:28.002Z,3608
2018-05-07T08:30:29.423Z,3628
2018-05-07T08:31:30.842Z,3660
2018-05-07T08:32:32.199Z,3696
2018-05-07T08:33:33.597Z,3720
2018-05-07T08:34:35.003Z,3744
2018-05-07T08:35:36.406Z,3784
2018-05-07T08:36:37.832Z,3800
2018-05-07T08:37:39.221Z,3840
2018-05-07T08:38:40.618Z,3872
2018-05-07T08:39:42.029Z,3900
2018-05-07T08:40:43.428Z,3932
2018-05-07T08:41:44.831Z,3960
2018-05-07T08:42:46.234Z,3984
2018-05-07T08:43:47.631Z,4020
2018-05-07T08:44:49.030Z,4044
2018-05-07T08:45:50.438Z,4084
2018-05-07T08:46:51.836Z,4116
2018-05-07T08:47:53.239Z,4140
2018-05-07T08:48:54.639Z,4176
2018-05-07T08:49:56.043Z,4212
2018-05-07T08:50:57.514Z,4244
2018-05-07T08:51:58.835Z,4276
2018-05-07T08:53:00.334Z,4304
2018-05-07T08:54:01.646Z,4324
2018-05-07T08:55:03.126Z,4360
2018-05-07T08:56:04.538Z,4392
2018-05-07T08:57:05.940Z,4436
2018-05-07T08:58:07.350Z,4472
2018-05-07T08:59:08.748Z,4500
2018-05-07T09:00:10.147Z,4536
2018-05-07T09:01:11.540Z,4572
2018-05-07T09:02:12.986Z,4616
2018-05-07T09:03:14.347Z,4652
2018-05-07T09:04:15.751Z,4688
2018-05-07T09:05:17.167Z,4728
2018-05-07T09:06:18.566Z,4772
2018-05-07T09:07:19.964Z,4808
2018-05-07T09:08:21.370Z,4864
2018-05-07T09:09:22.771Z,4888
2018-05-07T09:10:24.173Z,4904
2018-05-07T09:11:25.576Z,4956
2018-05-07T09:12:26.982Z,4988
2018-05-07T09:13:28.386Z,5028
2018-05-07T09:14:29.786Z,5064
2018-05-07T09:15:31.183Z,5112
2018-05-07T09:16:32.582Z,5160
2018-05-07T09:17:33.987Z,5200
2018-05-07T09:18:35.392Z,5248
2018-05-07T09:19:36.789Z,5296
2018-05-07T09:20:38.194Z,5340
2018-05-07T09:21:39.589Z,5392
2018-05-07T09:22:40.991Z,5432
2018-05-07T09:23:42.393Z,5480
2018-05-07T09:24:43.853Z,5524
2018-05-07T09:25:45.201Z,5572
2018-05-07T09:26:46.604Z,5616
2018-05-07T09:27:48.004Z,5680
2018-05-07T09:28:49.405Z,5716
2018-05-07T09:29:50.806Z,5764
2018-05-07T09:30:52.211Z,5812
2018-05-07T09:31:53.609Z,5868
2018-05-07T09:32:55.030Z,5928
2018-05-07T09:33:56.432Z,5976
2018-05-07T09:34:57.838Z,6032
2018-05-07T09:35:59.234Z,6088
2018-05-07T09:37:00.652Z,6148
2018-05-07T09:38:02.045Z,6192
2018-05-07T09:39:03.447Z,6248
2018-05-07T09:40:04.851Z,6304
2018-05-07T09:41:06.270Z,6368
2018-05-07T09:42:07.741Z,6436
2018-05-07T09:43:09.218Z,6496
2018-05-07T09:44:10.542Z,6560
2018-05-07T09:45:11.949Z,6628
2018-05-07T09:46:13.351Z,6680
2018-05-07T09:47:14.754Z,6756
2018-05-07T09:48:16.179Z,6824
2018-05-07T09:49:17.552Z,6908
2018-05-07T09:50:18.955Z,6968
2018-05-07T09:51:20.357Z,7008
2018-05-07T09:52:21.758Z,7096
2018-05-07T09:53:23.160Z,7216
2018-05-07T09:54:24.564Z,7276
2018-05-07T09:55:25.965Z,7368
2018-05-07T09:56:27.365Z,7460
2018-05-07T09:57:28.789Z,7520
2018-05-07T09:58:30.187Z,7620
2018-05-07T09:59:31.591Z,7712
2018-05-07T10:00:32.993Z,7776
2018-05-07T10:01:34.396Z,7856
2018-05-07T10:02:35.796Z,7976
2018-05-07T10:03:37.209Z,8080
2018-05-07T10:04:38.614Z,8148
2018-05-07T10:05:40.011Z,8272
2018-05-07T10:06:41.415Z,8332
2018-05-07T10:07:42.823Z,8436
2018-05-07T10:08:44.230Z,8580
2018-05-07T10:09:45.633Z,8692
2018-05-07T10:10:47.034Z,8808
2018-05-07T10:11:48.434Z,8912
2018-05-07T10:12:49.837Z,9048
2018-05-07T10:13:51.241Z,9208
2018-05-07T10:14:52.644Z,9320
2018-05-07T10:15:54.050Z,9444
2018-05-07T10:16:55.455Z,9588
2018-05-07T10:17:56.855Z,9736
2018-05-07T10:18:58.264Z,9928
2018-05-07T10:19:59.672Z,10096
2018-05-07T10:21:01.073Z,10192
2018-05-07T10:22:02.475Z,10400
2018-05-07T10:23:03.880Z,10536
2018-05-07T10:24:05.294Z,10776
2018-05-07T10:25:06.692Z,10920
2018-05-07T10:26:08.100Z,11176
2018-05-07T10:27:09.503Z,11416
2018-05-07T10:28:10.983Z,11700
2018-05-07T10:29:12.402Z,11932
2018-05-07T10:30:13.811Z,12248
2018-05-07T10:31:15.211Z,12552
2018-05-07T10:32:16.617Z,12904
2018-05-07T10:33:18.034Z,13288
2018-05-07T10:34:19.439Z,13736
2018-05-07T10:35:20.949Z,14220
2018-05-07T10:36:22.277Z,14768
2018-05-07T10:37:23.701Z,15412
2018-05-07T10:38:25.103Z,16260
2018-05-07T10:39:26.507Z,17140
2018-05-07T10:40:27.917Z,18432
2018-05-07T10:41:29.321Z,19840
2018-05-07T10:42:30.729Z,21664
2018-05-07T10:43:32.138Z,24192
2018-05-07T10:44:33.542Z,27232
2018-05-07T10:45:34.946Z,30688
2018-05-07T10:46:36.356Z,33856
2018-05-07T10:47:37.756Z,36736
2018-05-07T10:48:39.161Z,38368
2018-05-07T10:49:40.567Z,39872
2018-05-07T10:50:41.986Z,40672
2018-05-07T10:51:43.395Z,41920
2018-05-07T10:52:44.800Z,42656
2018-05-07T10:53:46.208Z,43424
2018-05-07T10:54:47.615Z,43328
2018-05-07T10:55:49.032Z,42688
2018-05-07T10:56:50.438Z,41952
2018-05-07T10:57:51.843Z,40928
2018-05-07T10:58:53.254Z,40160
2018-05-07T10:59:54.667Z,39200
2018-05-07T11:00:56.072Z,38208
2018-05-07T11:01:57.483Z,37504
2018-05-07T11:02:58.897Z,36320
2018-05-07T11:04:00.303Z,35232
2018-05-07T11:05:01.712Z,34176
2018-05-07T11:06:03.124Z,33376
2018-05-07T11:07:04.534Z,32448
2018-05-07T11:08:05.948Z,31840
2018-05-07T11:09:07.365Z,30976
2018-05-07T11:10:08.774Z,30208
2018-05-07T11:11:10.190Z,29600
2018-05-07T11:12:11.602Z,29088
2018-05-07T11:13:13.013Z,28448
2018-05-07T11:14:14.454Z,27936
2018-05-07T11:15:15.867Z,27552
2018-05-07T11:16:17.288Z,27136
2018-05-07T11:17:18.704Z,26816
2018-05-07T11:18:20.117Z,26496
2018-05-07T11:19:21.534Z,26080
2018-05-07T11:20:22.956Z,25664
2018-05-07T11:21:24.374Z,25536
2018-05-07T11:22:25.776Z,25312
2018-05-07T11:23:27.185Z,25056
2018-05-07T11:24:28.595Z,24896
2018-05-07T11:25:30.005Z,24736
2018-05-07T11:26:31.415Z,24576
2018-05-07T11:27:32.824Z,24448
2018-05-07T11:28:34.236Z,24352
2018-05-07T11:29:35.645Z,24128
2018-05-07T11:30:37.059Z,23968
2018-05-07T11:31:38.473Z,23840
2018-05-07T11:32:39.881Z,23648
2018-05-07T11:33:41.291Z,23360
2018-05-07T11:34:42.777Z,23328
2018-05-07T11:35:44.157Z,23232
2018-05-07T11:36:45.563Z,23008
2018-05-07T11:37:47.053Z,22944
2018-05-07T11:38:48.458Z,22912
2018-05-07T11:39:49.868Z,22784
2018-05-07T11:40:51.280Z,22592
2018-05-07T11:41:52.688Z,22528
2018-05-07T11:42:54.099Z,22432
2018-05-07T11:43:55.545Z,22240
2018-05-07T11:44:56.913Z,22112
2018-05-07T11:45:58.321Z,22080
2018-05-07T11:46:59.735Z,21952
2018-05-07T11:48:01.140Z,22016
2018-05-07T11:49:02.551Z,21888
2018-05-07T11:50:03.958Z,21728
2018-05-07T11:51:05.364Z,21600
2018-05-07T11:52:06.773Z,21504
2018-05-07T11:53:08.287Z,21504
2018-05-07T11:54:09.611Z,21440
2018-05-07T11:55:11.021Z,21472
2018-05-07T11:56:12.448Z,21440
2018-05-07T11:57:13.855Z,21440
2018-05-07T11:58:15.269Z,21440
2018-05-07T11:59:16.730Z,21472
2018-05-07T12:00:18.147Z,21376
2018-05-07T12:01:19.558Z,21280
2018-05-07T12:02:20.987Z,21472
2018-05-07T12:03:22.374Z,21408
2018-05-07T12:04:23.788Z,21440
2018-05-07T12:05:25.199Z,21344
2018-05-07T12:06:26.609Z,21472
2018-05-07T12:07:28.021Z,21472
2018-05-07T12:08:29.424Z,21472
2018-05-07T12:09:30.837Z,21440
2018-05-07T12:10:32.244Z,21472
2018-05-07T12:11:33.652Z,21504
2018-05-07T12:12:35.062Z,21536
2018-05-07T12:13:36.467Z,21472
2018-05-07T12:14:37.903Z,21600
2018-05-07T12:15:39.317Z,21696
2018-05-07T12:16:40.721Z,21856
2018-05-07T12:17:42.132Z,21856
2018-05-07T12:18:43.538Z,22016
2018-05-07T12:19:44.946Z,22080
2018-05-07T12:20:46.365Z,22144
2018-05-07T12:21:47.765Z,22240
2018-05-07T12:22:49.169Z,22336
2018-05-07T12:23:50.581Z,22464
2018-05-07T12:24:51.986Z,22400
2018-05-07T12:25:53.395Z,22528
2018-05-07T12:26:54.805Z,22656
2018-05-07T12:27:56.212Z,22688
2018-05-07T12:28:57.619Z,22688
2018-05-07T12:29:59.044Z,22720
2018-05-07T12:31:00.446Z,22720
2018-05-07T12:32:01.862Z,22752
2018-05-07T12:33:03.268Z,22944
2018-05-07T12:34:04.674Z,23104
2018-05-07T12:35:06.084Z,23200
2018-05-07T12:36:07.492Z,23232
2018-05-07T12:37:08.904Z,23264
2018-05-07T12:38:10.313Z,23232
2018-05-07T12:39:11.724Z,23328
2018-05-07T12:40:13.131Z,23360
2018-05-07T12:41:14.541Z,23392
2018-05-07T12:42:15.951Z,23328
2018-05-07T12:43:17.375Z,23392
2018-05-07T12:44:18.780Z,23392
2018-05-07T12:45:20.224Z,23360
2018-05-07T12:46:21.733Z,23424
2018-05-07T12:47:23.137Z,23488
2018-05-07T12:48:24.545Z,23488
2018-05-07T12:49:25.954Z,23584
2018-05-07T12:50:27.374Z,23680
2018-05-07T12:51:28.787Z,23648
2018-05-07T12:52:30.280Z,23712
2018-05-07T12:53:31.605Z,23680
2018-05-07T12:54:33.013Z,23712
2018-05-07T12:55:34.420Z,23648
2018-05-07T12:56:35.830Z,23680
2018-05-07T12:57:37.248Z,23584
2018-05-07T12:58:38.663Z,23680
2018-05-07T12:59:40.067Z,23616
2018-05-07T13:00:41.478Z,23648
2018-05-07T13:01:42.887Z,23744
2018-05-07T13:02:44.299Z,23744
2018-05-07T13:03:45.710Z,23712
2018-05-07T13:04:47.129Z,23616
2018-05-07T13:05:48.544Z,23520
2018-05-07T13:06:49.944Z,23552
2018-05-07T13:07:51.355Z,23488
2018-05-07T13:08:52.765Z,23392
2018-05-07T13:09:54.172Z,23296
2018-05-07T13:10:55.583Z,23232
2018-05-07T13:11:56.993Z,23296
2018-05-07T13:12:58.460Z,23200
2018-05-07T13:13:59.812Z,23072
2018-05-07T13:15:01.221Z,23040
2018-05-07T13:16:02.632Z,23040
2018-05-07T13:17:04.058Z,22976
2018-05-07T13:18:05.455Z,22816
2018-05-07T13:19:06.859Z,22784
2018-05-07T13:20:08.288Z,22720
2018-05-07T13:21:09.697Z,22752
2018-05-07T13:22:11.109Z,22720
2018-05-07T13:23:12.519Z,22624
2018-05-07T13:24:13.929Z,22592
2018-05-07T13:25:15.339Z,22496
2018-05-07T13:26:16.746Z,22496
2018-05-07T13:27:18.172Z,22400
2018-05-07T13:28:19.580Z,22368
2018-05-07T13:29:20.993Z,22368
2018-05-07T13:30:22.400Z,22400
2018-05-07T13:31:23.839Z,22304
2018-05-07T13:32:25.252Z,22240
2018-05-07T13:33:26.661Z,22048
2018-05-07T13:34:28.069Z,21984
2018-05-07T13:35:29.479Z,21952
2018-05-07T13:36:30.889Z,21792
2018-05-07T13:37:32.342Z,21792
2018-05-07T13:38:33.713Z,21696
2018-05-07T13:39:35.127Z,21600
2018-05-07T13:40:36.534Z,21440
2018-05-07T13:41:37.946Z,21280
2018-05-07T13:42:39.356Z,21120
2018-05-07T13:43:40.772Z,20992
2018-05-07T13:44:42.188Z,20896
2018-05-07T13:45:43.598Z,20704
2018-05-07T13:46:45.006Z,20544
2018-05-07T13:47:46.418Z,20352
2018-05-07T13:48:47.824Z,20192
2018-05-07T13:49:49.235Z,20064
2018-05-07T13:50:50.649Z,19904
2018-05-07T13:51:52.067Z,19776
2018-05-07T13:52:53.469Z,19616
2018-05-07T13:53:54.879Z,19488
2018-05-07T13:54:56.286Z,19360
2018-05-07T13:55:57.701Z,19264
2018-05-07T13:56:59.258Z,19072
2018-05-07T13:58:00.519Z,19008